createdAt,value
2022-09-07T00:00:09.269Z,99691.78
2022-09-07T00:05:11.045Z,99678.25
2022-09-07T00:10:12.668Z,99669.69
2022-09-07T00:15:14.384Z,99676.31
2022-09-07T00:20:16.117Z,99672.38
2022-09-07T00:25:17.830Z,99663.00
2022-09-07T00:30:19.498Z,99667.91
2022-09-07T00:35:21.157Z,99663.31
2022-09-07T00:40:22.788Z,99657.53
2022-09-07T00:45:24.768Z,99662.69
2022-09-07T00:50:32.552Z,99664.22
2022-09-07T00:55:37.353Z,99662.28
2022-09-07T01:00:41.861Z,99655.00
2022-09-07T01:05:52.677Z,99646.50
2022-09-07T01:10:55.429Z,99643.06
2022-09-07T01:16:17.354Z,99639.56
2022-09-07T01:21:24.305Z,99637.22
2022-09-07T01:26:59.743Z,99631.81
2022-09-07T01:32:12.732Z,99639.28
2022-09-07T01:37:33.097Z,99626.81
2022-09-07T01:42:47.513Z,99629.19
2022-09-07T01:47:54.647Z,99635.31
2022-09-07T01:53:03.040Z,99643.75
2022-09-07T01:58:23.331Z,99641.69
2022-09-07T02:03:34.451Z,99646.41
2022-09-07T02:09:00.920Z,99642.84
2022-09-07T02:14:24.736Z,99651.66
2022-09-07T02:19:34.166Z,99634.81
2022-09-07T02:24:49.933Z,99638.50
2022-09-07T02:29:52.245Z,99619.34
2022-09-07T02:34:53.873Z,99620.22
2022-09-07T02:39:55.711Z,99621.72
2022-09-07T02:44:57.724Z,99614.69
2022-09-07T02:50:20.462Z,99611.84
2022-09-07T02:55:40.373Z,99613.91
2022-09-07T03:00:59.026Z,99607.91
2022-09-07T03:06:07.866Z,99613.03
2022-09-07T03:11:10.182Z,99619.69
2022-09-07T03:16:15.963Z,99623.47
2022-09-07T03:21:17.649Z,99626.78
2022-09-07T03:26:25.178Z,99621.16
2022-09-07T03:31:26.961Z,99619.78
2022-09-07T03:36:32.262Z,99620.63
2022-09-07T03:41:34.722Z,99624.38
2022-09-07T03:46:36.503Z,99618.91
2022-09-07T03:51:39.817Z,99618.66
2022-09-07T03:56:45.882Z,99629.78
2022-09-07T04:01:49.415Z,99630.56
2022-09-07T04:06:51.375Z,99622.34
2022-09-07T04:11:53.029Z,99610.00
2022-09-07T04:16:54.970Z,99621.25
2022-09-07T04:21:56.702Z,99624.03
2022-09-07T04:26:58.372Z,99621.66
2022-09-07T04:32:00.022Z,99616.31
2022-09-07T04:37:01.667Z,99608.72
2022-09-07T04:42:03.620Z,99618.09
2022-09-07T04:47:05.441Z,99619.97
2022-09-07T04:52:07.144Z,99615.19
2022-09-07T04:57:10.978Z,99611.91
2022-09-07T05:02:12.702Z,99616.84
2022-09-07T05:07:14.533Z,99615.34
2022-09-07T05:12:16.507Z,99611.13
2022-09-07T05:17:19.402Z,99609.06
2022-09-07T05:22:21.098Z,99604.38
2022-09-07T05:27:22.806Z,99606.22
2022-09-07T05:32:24.598Z,99607.28
2022-09-07T05:37:26.273Z,99599.59
2022-09-07T05:42:28.007Z,99603.19
2022-09-07T05:47:29.842Z,99613.59
2022-09-07T05:52:31.523Z,99616.81
2022-09-07T05:57:33.171Z,99601.81
2022-09-07T06:02:39.531Z,99608.38
2022-09-07T06:07:42.004Z,99593.78
2022-09-07T06:12:49.177Z,99597.19
2022-09-07T06:17:51.346Z,99590.97
2022-09-07T06:22:52.988Z,99580.19
2022-09-07T06:27:54.646Z,99581.38
2022-09-07T06:32:56.328Z,99587.25
2022-09-07T06:37:58.239Z,99590.72
2022-09-07T06:42:59.895Z,99592.53
2022-09-07T06:48:01.554Z,99595.09
2022-09-07T06:58:25.943Z,99595.28
2022-09-07T07:03:28.631Z,99586.63
2022-09-07T07:08:30.754Z,99583.88
2022-09-07T07:13:32.498Z,99584.75
2022-09-07T07:18:35.103Z,99591.84
2022-09-07T07:23:37.599Z,99582.66
2022-09-07T07:34:02.102Z,99585.44
2022-09-07T07:39:04.523Z,99580.72
2022-09-07T07:44:06.221Z,99569.31
2022-09-07T07:49:07.807Z,99564.16
2022-09-07T07:54:09.607Z,99567.81
2022-09-07T07:59:15.474Z,99563.31
2022-09-07T08:04:17.416Z,99558.28
2022-09-07T08:09:19.000Z,99548.31
2022-09-07T08:14:21.952Z,99549.28
2022-09-07T08:19:23.553Z,99554.28
2022-09-07T08:24:25.784Z,99540.91
2022-09-07T08:29:27.519Z,99531.88
2022-09-07T08:34:29.103Z,99529.03
2022-09-07T08:39:31.176Z,99525.41
2022-09-07T08:44:48.907Z,99518.06
2022-09-07T08:50:04.748Z,99518.00
2022-09-07T08:55:32.067Z,99504.50
2022-09-07T09:00:36.057Z,99505.34
2022-09-07T09:05:43.913Z,99497.97
2022-09-07T09:11:10.827Z,99488.28
2022-09-07T09:16:42.754Z,99487.84
2022-09-07T09:21:45.542Z,99487.97
2022-09-07T09:26:51.686Z,99480.47
2022-09-07T09:31:53.681Z,99479.25
2022-09-07T09:36:56.454Z,99474.13
2022-09-07T09:42:19.770Z,99475.69
2022-09-07T09:47:32.877Z,99479.19
2022-09-07T09:52:47.659Z,99468.53
2022-09-07T10:04:00.994Z,99472.59
2022-09-07T10:09:03.627Z,99471.31
2022-09-07T10:14:05.585Z,99471.13
2022-09-07T10:19:34.019Z,99466.22
2022-09-07T10:24:39.607Z,99471.22
2022-09-07T10:29:41.767Z,99467.25
2022-09-07T10:34:55.314Z,99468.47
2022-09-07T10:40:00.726Z,99469.78
2022-09-07T10:45:20.598Z,99469.56
2022-09-07T10:50:36.710Z,99466.19
2022-09-07T10:56:00.042Z,99471.00
2022-09-07T11:01:24.193Z,99461.88
2022-09-07T11:06:32.209Z,99469.31
2022-09-07T11:17:13.956Z,99456.41
2022-09-07T11:22:22.834Z,99455.91
2022-09-07T11:27:44.017Z,99454.72
2022-09-07T11:32:55.327Z,99449.88
2022-09-07T11:38:02.783Z,99450.22
2022-09-07T11:43:22.454Z,99428.56
2022-09-07T11:48:33.383Z,99424.44
2022-09-07T11:53:44.396Z,99426.25
2022-09-07T11:59:05.271Z,99416.41
2022-09-07T12:04:29.458Z,99407.94
2022-09-07T12:10:02.502Z,99404.34
2022-09-07T12:15:28.342Z,99406.34
2022-09-07T12:20:47.319Z,99383.34
2022-09-07T12:25:51.404Z,99393.84
2022-09-07T12:31:04.541Z,99399.09
2022-09-07T12:36:28.146Z,99409.28
2022-09-07T12:47:30.075Z,99402.16
2022-09-07T12:52:45.810Z,99412.84
2022-09-07T12:58:04.708Z,99446.25
2022-09-07T13:08:44.083Z,99439.22
2022-09-07T13:14:17.120Z,99439.75
2022-09-07T13:19:50.927Z,99473.50
2022-09-07T13:24:55.693Z,99460.13
2022-09-07T13:30:15.214Z,99413.09
2022-09-07T13:35:22.674Z,99390.78
2022-09-07T13:40:27.203Z,99393.00
2022-09-07T13:45:28.944Z,99405.72
2022-09-07T13:50:44.181Z,99403.72
2022-09-07T13:55:56.828Z,99378.47
2022-09-07T14:01:02.497Z,99386.53
2022-09-07T14:06:37.223Z,99385.16
2022-09-07T14:11:54.350Z,99384.81
2022-09-07T14:17:07.223Z,99381.22
2022-09-07T14:22:14.690Z,99392.53
2022-09-07T14:27:23.718Z,99392.63
2022-09-07T14:32:27.162Z,99400.41
2022-09-07T14:37:29.629Z,99395.75
2022-09-07T14:42:32.125Z,99379.25
2022-09-07T14:47:38.253Z,99384.84
2022-09-07T14:53:33.318Z,99401.25
2022-09-07T14:58:13.697Z,99385.19
2022-09-07T15:03:29.694Z,99362.69
2022-09-07T15:08:42.565Z,99363.91
2022-09-07T15:13:45.524Z,99366.59
2022-09-07T15:18:54.934Z,99360.22
2022-09-07T15:24:01.358Z,99354.72
2022-09-07T15:29:11.109Z,99346.00
2022-09-07T15:34:16.056Z,99334.41
2022-09-07T15:39:21.242Z,99320.34
2022-09-07T15:44:26.480Z,99306.19
2022-09-07T15:49:29.708Z,99308.16
2022-09-07T15:54:35.246Z,99308.53
2022-09-07T15:59:38.670Z,99294.81
2022-09-07T16:04:40.401Z,99302.53
2022-09-07T16:09:42.055Z,99299.47
2022-09-07T16:14:43.854Z,99284.16
2022-09-07T16:19:45.566Z,99312.22
2022-09-07T16:24:48.074Z,99312.47
2022-09-07T16:29:49.719Z,99321.47
2022-09-07T16:34:51.366Z,99323.84
2022-09-07T16:39:53.364Z,99326.78
2022-09-07T16:46:02.207Z,99333.47
2022-09-07T16:50:16.756Z,99335.66
2022-09-07T16:55:18.704Z,99330.34
2022-09-07T17:00:20.758Z,99320.63
2022-09-07T17:05:22.757Z,99300.16
2022-09-07T17:10:24.471Z,99277.75
2022-09-07T17:15:26.234Z,99280.44
2022-09-07T17:20:28.285Z,99285.38
2022-09-07T17:25:29.912Z,99286.16
2022-09-07T17:30:33.047Z,99312.84
2022-09-07T17:35:37.438Z,99321.44
2022-09-07T17:40:39.239Z,99324.94
2022-09-07T17:45:40.932Z,99327.03
2022-09-07T17:50:42.790Z,99341.13
2022-09-07T17:55:44.877Z,99348.09
2022-09-07T18:00:46.655Z,99347.69
2022-09-07T18:05:53.974Z,99351.16
2022-09-07T18:16:30.276Z,99349.09
2022-09-07T18:21:35.267Z,99349.44
2022-09-07T18:26:39.137Z,99333.50
2022-09-07T18:31:40.814Z,99351.00
2022-09-07T18:36:44.028Z,99349.25
2022-09-07T18:41:45.870Z,99360.34
2022-09-07T18:46:47.464Z,99367.34
2022-09-07T18:57:10.683Z,99358.03
2022-09-07T19:02:12.520Z,99351.38
2022-09-07T19:07:14.191Z,99340.53
2022-09-07T19:12:15.838Z,99335.53
2022-09-07T19:17:17.993Z,99341.78
2022-09-07T19:22:19.663Z,99332.03
2022-09-07T19:27:21.267Z,99323.22
2022-09-07T19:32:22.895Z,99325.13
2022-09-07T19:37:25.746Z,99322.53
2022-09-07T19:42:28.081Z,99341.63
2022-09-07T19:47:29.741Z,99332.88
2022-09-07T19:52:31.553Z,99322.72
2022-09-07T19:57:33.177Z,99320.09
2022-09-07T20:02:34.787Z,99322.00
2022-09-07T20:07:36.428Z,99332.66
2022-09-07T20:12:38.144Z,99338.34
2022-09-07T20:17:39.779Z,99341.53
2022-09-07T20:22:41.437Z,99334.09
2022-09-07T20:27:43.135Z,99333.63
2022-09-07T20:32:44.818Z,99327.44
2022-09-07T20:37:46.446Z,99329.13
2022-09-07T20:42:48.290Z,99322.00
2022-09-07T20:47:49.884Z,99318.72
2022-09-07T20:52:51.474Z,99304.59
2022-09-07T20:57:53.201Z,99303.94
2022-09-07T21:02:54.803Z,99299.03
2022-09-07T21:07:56.606Z,99307.41
2022-09-07T21:12:58.225Z,99302.03
2022-09-07T21:17:59.813Z,99299.66
2022-09-07T21:23:01.473Z,99294.97
2022-09-07T21:28:03.109Z,99295.44
2022-09-07T21:33:04.802Z,99298.31
2022-09-07T21:38:06.440Z,99304.81
2022-09-07T21:43:08.332Z,99301.03
2022-09-07T21:48:10.157Z,99296.66
2022-09-07T21:53:12.730Z,99301.34
2022-09-07T21:58:14.903Z,99295.66
2022-09-07T22:03:16.818Z,99291.75
2022-09-07T22:08:18.639Z,99283.81
2022-09-07T22:13:20.467Z,99291.34
2022-09-07T22:18:22.140Z,99272.34
2022-09-07T22:23:23.779Z,99265.41
2022-09-07T22:28:25.667Z,99258.25
2022-09-07T22:33:27.274Z,99259.06
2022-09-07T22:38:28.928Z,99257.13
2022-09-07T22:43:30.545Z,99260.06
2022-09-07T22:48:32.773Z,99267.06
2022-09-07T22:53:37.534Z,99262.47
2022-09-07T22:58:39.660Z,99259.84
2022-09-07T23:03:41.661Z,99255.09
2022-09-07T23:08:43.843Z,99258.03
2022-09-07T23:13:45.880Z,99244.81
2022-09-07T23:18:48.413Z,99242.88
2022-09-07T23:23:55.313Z,99247.38
2022-09-07T23:29:02.465Z,99246.28
2022-09-07T23:34:04.627Z,99249.75
2022-09-07T23:39:06.271Z,99251.84
2022-09-07T23:44:08.133Z,99250.00
2022-09-07T23:49:09.777Z,99246.03
2022-09-07T23:54:11.378Z,99242.78
2022-09-07T23:59:12.983Z,99251.13
